sensor_id;sensor_type;location;lat;lon;timestamp;pressure;altitude;pressure_sealevel;temperature;humidity
57562;BME280;43397;51.530;5.974;2023-04-20T00:01:10;76645.28;;;-145.90;27.73
57562;BME280;43397;51.530;5.974;2023-04-20T00:03:37;76665.53;;;-145.90;27.83
57562;BME280;43397;51.530;5.974;2023-04-20T00:06:03;76651.34;;;-145.90;27.72
57562;BME280;43397;51.530;5.974;2023-04-20T00:08:29;76633.09;;;-145.90;27.45
57562;BME280;43397;51.530;5.974;2023-04-20T00:10:54;76641.22;;;-145.90;27.55
57562;BME280;43397;51.530;5.974;2023-04-20T00:13:20;76497.28;;;-145.90;26.73
57562;BME280;43397;51.530;5.974;2023-04-20T00:15:46;76596.63;;;-145.90;27.22
57562;BME280;43397;51.530;5.974;2023-04-20T00:18:11;76610.81;;;-145.90;27.20
57562;BME280;43397;51.530;5.974;2023-04-20T00:20:38;76586.47;;;-145.90;27.25
57562;BME280;43397;51.530;5.974;2023-04-20T00:23:06;76586.47;;;-145.90;27.14
57562;BME280;43397;51.530;5.974;2023-04-20T00:25:31;76545.94;;;-145.90;27.13
57562;BME280;43397;51.530;5.974;2023-04-20T00:27:57;76564.19;;;-145.90;27.25
57562;BME280;43397;51.530;5.974;2023-04-20T00:30:23;76545.94;;;-145.90;27.00
57562;BME280;43397;51.530;5.974;2023-04-20T00:32:48;76578.38;;;-145.90;27.18
57562;BME280;43397;51.530;5.974;2023-04-20T00:35:14;76594.59;;;-145.90;27.21
57562;BME280;43397;51.530;5.974;2023-04-20T00:37:41;76574.31;;;-145.90;27.28
57562;BME280;43397;51.530;5.974;2023-04-20T00:40:08;76556.06;;;-145.90;27.31
57562;BME280;43397;51.530;5.974;2023-04-20T00:42:33;76584.47;;;-145.90;27.14
57562;BME280;43397;51.530;5.974;2023-04-20T00:44:59;76487.16;;;-145.90;27.01
57562;BME280;43397;51.530;5.974;2023-04-20T00:47:25;76594.59;;;-145.90;27.42
57562;BME280;43397;51.530;5.974;2023-04-20T00:49:51;76594.59;;;-145.90;27.28
57562;BME280;43397;51.530;5.974;2023-04-20T00:52:17;76618.91;;;-145.90;27.56
57562;BME280;43397;51.530;5.974;2023-04-20T00:54:44;76576.34;;;-145.90;27.42
57562;BME280;43397;51.530;5.974;2023-04-20T00:57:12;76547.97;;;-145.90;27.43
57562;BME280;43397;51.530;5.974;2023-04-20T00:59:38;76527.69;;;-145.90;27.33
57562;BME280;43397;51.530;5.974;2023-04-20T01:02:04;76635.13;;;-145.90;27.69
57562;BME280;43397;51.530;5.974;2023-04-20T01:04:29;76515.53;;;-145.90;27.15
57562;BME280;43397;51.530;5.974;2023-04-20T01:06:55;76529.72;;;-145.90;27.30
57562;BME280;43397;51.530;5.974;2023-04-20T01:09:21;76535.81;;;-145.90;27.45
57562;BME280;43397;51.530;5.974;2023-04-20T01:11:48;76572.28;;;-145.90;27.56
57562;BME280;43397;51.530;5.974;2023-04-20T01:14:14;76507.44;;;-145.90;27.28
57562;BME280;43397;51.530;5.974;2023-04-20T01:16:39;76533.78;;;-145.90;27.54
57562;BME280;43397;51.530;5.974;2023-04-20T01:19:05;76454.72;;;-145.90;27.08
57562;BME280;43397;51.530;5.974;2023-04-20T01:21:31;76513.50;;;-145.90;27.45
57562;BME280;43397;51.530;5.974;2023-04-20T01:23:57;76483.09;;;-145.90;27.48
57562;BME280;43397;51.530;5.974;2023-04-20T01:26:23;76426.34;;;-145.90;27.12
57562;BME280;43397;51.530;5.974;2023-04-20T01:28:49;76420.25;;;-145.90;26.94
57562;BME280;43397;51.530;5.974;2023-04-20T01:31:15;76379.72;;;-145.90;26.92
57562;BME280;43397;51.530;5.974;2023-04-20T01:33:40;76395.94;;;-145.90;26.97
57562;BME280;43397;51.530;5.974;2023-04-20T01:36:08;76454.72;;;-145.90;27.31
57562;BME280;43397;51.530;5.974;2023-04-20T01:38:34;76479.03;;;-145.90;27.67
57562;BME280;43397;51.530;5.974;2023-04-20T01:41:02;76519.59;;;-145.90;27.99
57562;BME280;43397;51.530;5.974;2023-04-20T01:43:28;76533.78;;;-145.90;28.39
57562;BME280;43397;51.530;5.974;2023-04-20T01:45:54;76586.47;;;-145.90;28.58
57562;BME280;43397;51.530;5.974;2023-04-20T01:48:20;76618.91;;;-145.90;29.00
57562;BME280;43397;51.530;5.974;2023-04-20T01:50:49;76578.38;;;-145.90;28.85
57562;BME280;43397;51.530;5.974;2023-04-20T01:53:15;76537.84;;;-145.90;28.75
57562;BME280;43397;51.530;5.974;2023-04-20T01:55:40;76460.81;;;-145.90;28.42
57562;BME280;43397;51.530;5.974;2023-04-20T01:58:07;76525.66;;;-145.90;28.61
57562;BME280;43397;51.530;5.974;2023-04-20T02:00:33;76556.06;;;-145.90;28.96
57562;BME280;43397;51.530;5.974;2023-04-20T02:02:58;76529.72;;;-145.90;28.87
57562;BME280;43397;51.530;5.974;2023-04-20T02:05:24;76479.03;;;-145.90;28.55
57562;BME280;43397;51.530;5.974;2023-04-20T02:07:50;76527.69;;;-145.90;29.05
57562;BME280;43397;51.530;5.974;2023-04-20T02:10:16;76517.56;;;-145.90;28.99
57562;BME280;43397;51.530;5.974;2023-04-20T02:12:42;76582.44;;;-145.90;29.24
57562;BME280;43397;51.530;5.974;2023-04-20T02:15:09;76537.84;;;-145.90;29.11
57562;BME280;43397;51.530;5.974;2023-04-20T02:17:35;76578.38;;;-145.90;29.46
57562;BME280;43397;51.530;5.974;2023-04-20T02:20:01;76535.81;;;-145.90;29.25
57562;BME280;43397;51.530;5.974;2023-04-20T02:22:26;76590.53;;;-145.90;29.81
57562;BME280;43397;51.530;5.974;2023-04-20T02:24:52;76531.75;;;-145.90;29.37
57562;BME280;43397;51.530;5.974;2023-04-20T02:27:18;76560.13;;;-145.90;29.69
57562;BME280;43397;51.530;5.974;2023-04-20T02:29:43;76537.84;;;-145.90;29.71
57562;BME280;43397;51.530;5.974;2023-04-20T02:32:11;76517.56;;;-145.90;29.54
57562;BME280;43397;51.530;5.974;2023-04-20T02:34:37;76586.47;;;-145.90;30.05
57562;BME280;43397;51.530;5.974;2023-04-20T02:37:02;76598.66;;;-145.90;30.16
57562;BME280;43397;51.530;5.974;2023-04-20T02:39:28;76545.94;;;-145.90;30.11
57562;BME280;43397;51.530;5.974;2023-04-20T02:41:54;76529.72;;;-145.90;29.91
57562;BME280;43397;51.530;5.974;2023-04-20T02:44:19;76493.22;;;-145.90;29.64
57562;BME280;43397;51.530;5.974;2023-04-20T02:46:45;76454.72;;;-145.90;29.67
57562;BME280;43397;51.530;5.974;2023-04-20T02:49:12;76483.09;;;-145.90;29.66
57562;BME280;43397;51.530;5.974;2023-04-20T02:51:38;76442.56;;;-145.90;29.65
57562;BME280;43397;51.530;5.974;2023-04-20T02:54:03;76446.63;;;-145.90;29.96
57562;BME280;43397;51.530;5.974;2023-04-20T02:56:29;76472.97;;;-145.90;30.21
57562;BME280;43397;51.530;5.974;2023-04-20T02:58:55;76430.41;;;-145.90;30.13
57562;BME280;43397;51.530;5.974;2023-04-20T03:01:20;76424.31;;;-145.90;29.77
57562;BME280;43397;51.530;5.974;2023-04-20T03:03:46;76525.66;;;-145.90;30.60
57562;BME280;43397;51.530;5.974;2023-04-20T03:06:13;76503.38;;;-145.90;30.74
57562;BME280;43397;51.530;5.974;2023-04-20T03:08:39;76483.09;;;-145.90;30.73
57562;BME280;43397;51.530;5.974;2023-04-20T03:11:04;76483.09;;;-145.90;31.15
57562;BME280;43397;51.530;5.974;2023-04-20T03:13:30;76406.06;;;-145.90;30.67
57562;BME280;43397;51.530;5.974;2023-04-20T03:15:56;76513.50;;;-145.90;31.70
57562;BME280;43397;51.530;5.974;2023-04-20T03:18:21;76450.66;;;-145.90;31.42
57562;BME280;43397;51.530;5.974;2023-04-20T03:20:47;76428.38;;;-145.90;31.24
57562;BME280;43397;51.530;5.974;2023-04-20T03:23:14;76432.41;;;-145.90;31.58
57562;BME280;43397;51.530;5.974;2023-04-20T03:25:40;76349.31;;;-145.90;30.82
57562;BME280;43397;51.530;5.974;2023-04-20T03:28:06;76420.25;;;-145.90;31.58
57562;BME280;43397;51.530;5.974;2023-04-20T03:30:31;76426.34;;;-145.90;31.81
57562;BME280;43397;51.530;5.974;2023-04-20T03:32:57;76426.34;;;-145.90;31.81
57562;BME280;43397;51.530;5.974;2023-04-20T03:35:23;76475.00;;;-145.90;32.18
57562;BME280;43397;51.530;5.974;2023-04-20T03:37:48;76458.78;;;-145.90;32.03
57562;BME280;43397;51.530;5.974;2023-04-20T03:40:15;76438.50;;;-145.90;32.08
57562;BME280;43397;51.530;5.974;2023-04-20T03:42:41;76387.81;;;-145.90;31.74
57562;BME280;43397;51.530;5.974;2023-04-20T03:45:08;76359.44;;;-145.90;31.67
57562;BME280;43397;51.530;5.974;2023-04-20T03:47:33;76393.91;;;-145.90;32.24
57562;BME280;43397;51.530;5.974;2023-04-20T03:49:59;76436.47;;;-145.90;32.53
57562;BME280;43397;51.530;5.974;2023-04-20T03:52:25;76430.41;;;-145.90;32.40
57562;BME280;43397;51.530;5.974;2023-04-20T03:54:50;76355.41;;;-145.90;32.00
57562;BME280;43397;51.530;5.974;2023-04-20T03:57:17;76408.09;;;-145.90;32.38
57562;BME280;43397;51.530;5.974;2023-04-20T03:59:43;76333.09;;;-145.90;32.03
57562;BME280;43397;51.530;5.974;2023-04-20T04:02:09;76331.06;;;-145.90;31.79
57562;BME280;43397;51.530;5.974;2023-04-20T04:04:34;76286.47;;;-145.90;31.37
57562;BME280;43397;51.530;5.974;2023-04-20T04:07:00;76268.22;;;-145.90;31.45
57562;BME280;43397;51.530;5.974;2023-04-20T04:09:26;76195.25;;;-145.90;31.15
57562;BME280;43397;51.530;5.974;2023-04-20T04:11:51;76209.44;;;-145.90;31.18
57562;BME280;43397;51.530;5.974;2023-04-20T04:14:18;76199.31;;;-145.90;31.08
57562;BME280;43397;51.530;5.974;2023-04-20T04:16:44;76282.41;;;-145.90;32.10
57562;BME280;43397;51.530;5.974;2023-04-20T04:19:10;76225.66;;;-145.90;31.76
57562;BME280;43397;51.530;5.974;2023-04-20T04:21:35;76209.44;;;-145.90;31.68
57562;BME280;43397;51.530;5.974;2023-04-20T04:24:01;76243.91;;;-145.90;31.86
57562;BME280;43397;51.530;5.974;2023-04-20T04:26:27;76318.91;;;-145.90;32.79
57562;BME280;43397;51.530;5.974;2023-04-20T04:28:52;76252.00;;;-145.90;32.93
57562;BME280;43397;51.530;5.974;2023-04-20T04:31:19;76347.28;;;-145.90;34.33
57562;BME280;43397;51.530;5.974;2023-04-20T04:33:45;76322.97;;;-145.90;34.69
57562;BME280;43397;51.530;5.974;2023-04-20T04:36:11;76314.84;;;-145.90;34.61
57562;BME280;43397;51.530;5.974;2023-04-20T04:38:37;76325.00;;;-145.90;34.61
57562;BME280;43397;51.530;5.974;2023-04-20T04:41:03;76300.66;;;-145.90;35.14
57562;BME280;43397;51.530;5.974;2023-04-20T04:43:29;76270.25;;;-145.90;34.60
57562;BME280;43397;51.530;5.974;2023-04-20T04:45:55;76205.41;;;-145.90;34.68
57562;BME280;43397;51.530;5.974;2023-04-20T04:48:22;76075.66;;;-145.90;33.27
57562;BME280;43397;51.530;5.974;2023-04-20T04:50:47;76164.84;;;-145.90;34.27
57562;BME280;43397;51.530;5.974;2023-04-20T04:53:13;76187.16;;;-145.90;34.23
57562;BME280;43397;51.530;5.974;2023-04-20T04:55:38;76085.81;;;-145.90;33.89
57562;BME280;43397;51.530;5.974;2023-04-20T04:58:04;76175.00;;;-145.90;34.09
57562;BME280;43397;51.530;5.974;2023-04-20T05:00:30;76223.63;;;-145.90;34.72
57562;BME280;43397;51.530;5.974;2023-04-20T05:02:55;76369.59;;;-145.90;36.27
57562;BME280;43397;51.530;5.974;2023-04-20T05:05:22;76310.81;;;-145.90;35.78
57562;BME280;43397;51.530;5.974;2023-04-20T05:07:48;76363.50;;;-145.90;36.25
57562;BME280;43397;51.530;5.974;2023-04-20T05:10:14;76347.28;;;-145.90;36.06
57562;BME280;43397;51.530;5.974;2023-04-20T05:12:39;76365.53;;;-145.90;36.46
57562;BME280;43397;51.530;5.974;2023-04-20T05:15:06;76460.81;;;-145.90;36.95
57562;BME280;43397;51.530;5.974;2023-04-20T05:17:32;76341.19;;;-145.90;36.15
57562;BME280;43397;51.530;5.974;2023-04-20T05:19:58;76379.72;;;-145.90;36.28
57562;BME280;43397;51.530;5.974;2023-04-20T05:22:25;76393.91;;;-145.90;36.21
57562;BME280;43397;51.530;5.974;2023-04-20T05:24:50;76278.38;;;-145.90;35.42
57562;BME280;43397;51.530;5.974;2023-04-20T05:27:16;76148.63;;;-145.90;34.08
57562;BME280;43397;51.530;5.974;2023-04-20T05:29:41;76252.00;;;-145.90;34.70
57562;BME280;43397;51.530;5.974;2023-04-20T05:32:07;76250.00;;;-145.90;34.98
57562;BME280;43397;51.530;5.974;2023-04-20T05:34:33;76266.22;;;-145.90;35.13
57562;BME280;43397;51.530;5.974;2023-04-20T05:36:58;76181.06;;;-145.90;34.23
57562;BME280;43397;51.530;5.974;2023-04-20T05:39:26;76152.69;;;-145.90;33.93
57562;BME280;43397;51.530;5.974;2023-04-20T05:41:51;76148.63;;;-145.90;34.58
57562;BME280;43397;51.530;5.974;2023-04-20T05:44:17;76025.00;;;-145.90;33.17
57562;BME280;43397;51.530;5.974;2023-04-20T05:46:43;76097.97;;;-145.90;34.18
57562;BME280;43397;51.530;5.974;2023-04-20T05:49:08;76158.78;;;-145.90;34.57
57562;BME280;43397;51.530;5.974;2023-04-20T05:51:34;76162.81;;;-145.90;34.28
57562;BME280;43397;51.530;5.974;2023-04-20T05:54:00;76158.78;;;-145.90;34.26
57562;BME280;43397;51.530;5.974;2023-04-20T05:56:27;76199.31;;;-145.90;35.16
57562;BME280;43397;51.530;5.974;2023-04-20T05:58:53;76142.56;;;-145.90;34.33
57562;BME280;43397;51.530;5.974;2023-04-20T06:01:18;76183.09;;;-145.90;34.78
57562;BME280;43397;51.530;5.974;2023-04-20T06:03:44;76181.06;;;-145.90;35.14
57562;BME280;43397;51.530;5.974;2023-04-20T06:06:10;76154.72;;;-145.90;35.68
57562;BME280;43397;51.530;5.974;2023-04-20T06:08:35;76089.84;;;-145.90;34.63
57562;BME280;43397;51.530;5.974;2023-04-20T06:11:01;76310.81;;;-145.90;36.18
57562;BME280;43397;51.530;5.974;2023-04-20T06:13:28;76276.34;;;-145.90;35.71
57562;BME280;43397;51.530;5.974;2023-04-20T06:15:54;76237.81;;;-145.90;35.53
57562;BME280;43397;51.530;5.974;2023-04-20T06:18:19;76150.66;;;-145.90;35.15
57562;BME280;43397;51.530;5.974;2023-04-20T06:20:45;76207.41;;;-145.90;35.38
57562;BME280;43397;51.530;5.974;2023-04-20T06:23:11;76140.53;;;-145.90;35.08
57562;BME280;43397;51.530;5.974;2023-04-20T06:25:37;76254.03;;;-145.90;35.60
57562;BME280;43397;51.530;5.974;2023-04-20T06:28:04;76254.03;;;-145.90;35.64
57562;BME280;43397;51.530;5.974;2023-04-20T06:30:31;76197.28;;;-145.90;35.53
57562;BME280;43397;51.530;5.974;2023-04-20T06:32:56;76134.44;;;-145.90;35.19
57562;BME280;43397;51.530;5.974;2023-04-20T06:35:22;76162.81;;;-145.90;34.67
57562;BME280;43397;51.530;5.974;2023-04-20T06:37:48;76083.78;;;-145.90;34.61
57562;BME280;43397;51.530;5.974;2023-04-20T06:40:14;76148.63;;;-145.90;34.97
57562;BME280;43397;51.530;5.974;2023-04-20T06:42:39;76175.00;;;-145.90;34.88
57562;BME280;43397;51.530;5.974;2023-04-20T06:45:06;76164.84;;;-145.90;35.41
57562;BME280;43397;51.530;5.974;2023-04-20T06:47:34;76179.03;;;-145.90;35.08
57562;BME280;43397;51.530;5.974;2023-04-20T06:50:01;76191.22;;;-145.90;35.26
57562;BME280;43397;51.530;5.974;2023-04-20T06:52:27;76215.53;;;-145.90;35.63
57562;BME280;43397;51.530;5.974;2023-04-20T06:54:53;76221.63;;;-145.90;35.35
57562;BME280;43397;51.530;5.974;2023-04-20T06:57:19;76138.50;;;-145.90;34.85
57562;BME280;43397;51.530;5.974;2023-04-20T06:59:44;76069.59;;;-145.90;34.66
57562;BME280;43397;51.530;5.974;2023-04-20T07:02:10;76134.44;;;-145.90;34.50
57562;BME280;43397;51.530;5.974;2023-04-20T07:04:37;76201.34;;;-145.90;35.30
57562;BME280;43397;51.530;5.974;2023-04-20T07:07:03;76081.75;;;-145.90;34.50
57562;BME280;43397;51.530;5.974;2023-04-20T07:09:28;76122.28;;;-145.90;34.97
57562;BME280;43397;51.530;5.974;2023-04-20T07:11:54;76016.88;;;-145.90;33.94
57562;BME280;43397;51.530;5.974;2023-04-20T07:14:19;76122.28;;;-145.90;34.85
57562;BME280;43397;51.530;5.974;2023-04-20T07:16:45;76128.38;;;-145.90;35.07
57562;BME280;43397;51.530;5.974;2023-04-20T07:19:11;76136.47;;;-145.90;35.10
57562;BME280;43397;51.530;5.974;2023-04-20T07:21:38;76164.84;;;-145.90;34.97
57562;BME280;43397;51.530;5.974;2023-04-20T07:24:04;76136.47;;;-145.90;35.15
57562;BME280;43397;51.530;5.974;2023-04-20T07:26:30;76016.88;;;-145.90;34.28
57562;BME280;43397;51.530;5.974;2023-04-20T07:28:55;76118.22;;;-145.90;34.72
57562;BME280;43397;51.530;5.974;2023-04-20T07:31:21;76097.97;;;-145.90;34.77
57562;BME280;43397;51.530;5.974;2023-04-20T07:33:47;76077.69;;;-145.90;34.66
57562;BME280;43397;51.530;5.974;2023-04-20T07:36:12;76041.22;;;-145.90;34.12
57562;BME280;43397;51.530;5.974;2023-04-20T07:38:39;76087.84;;;-145.90;34.70
57562;BME280;43397;51.530;5.974;2023-04-20T07:41:07;76199.31;;;-145.90;35.20
57562;BME280;43397;51.530;5.974;2023-04-20T07:43:33;76110.13;;;-145.90;34.47
57562;BME280;43397;51.530;5.974;2023-04-20T07:45:58;76132.44;;;-145.90;34.84
57562;BME280;43397;51.530;5.974;2023-04-20T07:48:24;76193.22;;;-145.90;35.67
57562;BME280;43397;51.530;5.974;2023-04-20T07:50:50;76114.19;;;-145.90;35.52
57562;BME280;43397;51.530;5.974;2023-04-20T07:53:15;76247.97;;;-145.90;36.59
57562;BME280;43397;51.530;5.974;2023-04-20T07:55:42;76122.28;;;-145.90;36.09
57562;BME280;43397;51.530;5.974;2023-04-20T07:58:08;76191.22;;;-145.90;36.16
57562;BME280;43397;51.530;5.974;2023-04-20T08:00:34;76160.81;;;-145.90;35.83
57562;BME280;43397;51.530;5.974;2023-04-20T08:02:59;76031.06;;;-145.90;34.94
57562;BME280;43397;51.530;5.974;2023-04-20T08:05:25;75943.94;;;-145.90;34.00
57562;BME280;43397;51.530;5.974;2023-04-20T08:07:51;76170.94;;;-145.90;35.28
57562;BME280;43397;51.530;5.974;2023-04-20T08:10:17;76012.84;;;-145.90;34.72
57562;BME280;43397;51.530;5.974;2023-04-20T08:12:44;75986.50;;;-145.90;33.99
57562;BME280;43397;51.530;5.974;2023-04-20T08:15:10;76033.09;;;-145.90;34.75
57562;BME280;43397;51.530;5.974;2023-04-20T08:17:36;76057.44;;;-145.90;34.61
57562;BME280;43397;51.530;5.974;2023-04-20T08:20:01;75941.91;;;-145.90;34.06
57562;BME280;43397;51.530;5.974;2023-04-20T08:22:27;76018.91;;;-145.90;34.05
57562;BME280;43397;51.530;5.974;2023-04-20T08:24:53;75996.63;;;-145.90;34.19
57562;BME280;43397;51.530;5.974;2023-04-20T08:27:18;76081.75;;;-145.90;34.58
57562;BME280;43397;51.530;5.974;2023-04-20T08:29:45;76049.31;;;-145.90;34.58
57562;BME280;43397;51.530;5.974;2023-04-20T08:32:11;76110.13;;;-145.90;35.02
57562;BME280;43397;51.530;5.974;2023-04-20T08:34:37;76138.50;;;-145.90;35.41
57562;BME280;43397;51.530;5.974;2023-04-20T08:37:03;76108.09;;;-145.90;35.19
57562;BME280;43397;51.530;5.974;2023-04-20T08:39:28;76089.84;;;-145.90;34.98
57562;BME280;43397;51.530;5.974;2023-04-20T08:41:54;76087.84;;;-145.90;35.05
57562;BME280;43397;51.530;5.974;2023-04-20T08:44:20;76055.41;;;-145.90;34.61
57562;BME280;43397;51.530;5.974;2023-04-20T08:46:47;75891.22;;;-145.90;33.74
57562;BME280;43397;51.530;5.974;2023-04-20T08:49:14;76008.78;;;-145.90;34.31
57562;BME280;43397;51.530;5.974;2023-04-20T08:51:41;76102.03;;;-145.90;35.18
57562;BME280;43397;51.530;5.974;2023-04-20T08:54:07;76051.34;;;-145.90;35.10
57562;BME280;43397;51.530;5.974;2023-04-20T08:56:35;76059.47;;;-145.90;35.01
57562;BME280;43397;51.530;5.974;2023-04-20T08:59:01;75889.19;;;-145.90;33.58
57562;BME280;43397;51.530;5.974;2023-04-20T09:01:27;76004.72;;;-145.90;34.13
57562;BME280;43397;51.530;5.974;2023-04-20T09:03:54;75939.88;;;-145.90;33.85
57562;BME280;43397;51.530;5.974;2023-04-20T09:06:19;75814.22;;;-145.90;33.01
57562;BME280;43397;51.530;5.974;2023-04-20T09:08:45;75907.44;;;-145.90;33.32
57562;BME280;43397;51.530;5.974;2023-04-20T09:11:20;75893.25;;;-145.90;33.24
57562;BME280;43397;51.530;5.974;2023-04-20T09:13:56;75986.50;;;-145.90;33.72
57562;BME280;43397;51.530;5.974;2023-04-20T09:16:22;75960.13;;;-145.90;33.68
57562;BME280;43397;51.530;5.974;2023-04-20T09:18:51;75939.88;;;-145.90;33.76
57562;BME280;43397;51.530;5.974;2023-04-20T09:21:18;75872.97;;;-145.90;32.80
57562;BME280;43397;51.530;5.974;2023-04-20T09:23:54;75958.13;;;-145.90;33.38
57562;BME280;43397;51.530;5.974;2023-04-20T09:26:20;75816.22;;;-145.90;32.68
57562;BME280;43397;51.530;5.974;2023-04-20T09:28:46;75891.22;;;-145.90;32.94
57562;BME280;43397;51.530;5.974;2023-04-20T09:31:16;75899.34;;;-145.90;33.13
57562;BME280;43397;51.530;5.974;2023-04-20T09:33:42;75968.25;;;-145.90;33.29
57562;BME280;43397;51.530;5.974;2023-04-20T09:36:08;75980.41;;;-145.90;33.51
57562;BME280;43397;51.530;5.974;2023-04-20T09:38:35;75824.34;;;-145.90;32.88
57562;BME280;43397;51.530;5.974;2023-04-20T09:41:01;75834.47;;;-145.90;33.14
57562;BME280;43397;51.530;5.974;2023-04-20T09:43:28;75915.53;;;-145.90;33.54
57562;BME280;43397;51.530;5.974;2023-04-20T09:45:54;75879.06;;;-145.90;33.54
57562;BME280;43397;51.530;5.974;2023-04-20T09:48:20;76012.84;;;-145.90;34.91
57562;BME280;43397;51.530;5.974;2023-04-20T09:50:46;75935.81;;;-145.90;34.10
57562;BME280;43397;51.530;5.974;2023-04-20T09:53:12;75848.66;;;-145.90;33.68
57562;BME280;43397;51.530;5.974;2023-04-20T09:55:44;75889.19;;;-145.90;33.39
57562;BME280;43397;51.530;5.974;2023-04-20T09:58:11;75836.50;;;-145.90;33.64
57562;BME280;43397;51.530;5.974;2023-04-20T10:00:36;75875.00;;;-145.90;33.19
57562;BME280;43397;51.530;5.974;2023-04-20T10:03:02;75769.63;;;-145.90;33.05
57562;BME280;43397;51.530;5.974;2023-04-20T10:05:32;75836.50;;;-145.90;33.48
57562;BME280;43397;51.530;5.974;2023-04-20T10:07:58;76035.13;;;-145.90;34.73
57562;BME280;43397;51.530;5.974;2023-04-20T10:10:24;75931.75;;;-145.90;34.50
57562;BME280;43397;51.530;5.974;2023-04-20T10:12:53;76004.72;;;-145.90;34.55
57562;BME280;43397;51.530;5.974;2023-04-20T10:15:19;75832.44;;;-145.90;33.87
57562;BME280;43397;51.530;5.974;2023-04-20T10:17:45;75964.19;;;-145.90;34.41
57562;BME280;43397;51.530;5.974;2023-04-20T10:20:18;75960.13;;;-145.90;34.54
57562;BME280;43397;51.530;5.974;2023-04-20T10:22:44;75885.16;;;-145.90;34.17
57562;BME280;43397;51.530;5.974;2023-04-20T10:25:14;75905.41;;;-145.90;34.43
57562;BME280;43397;51.530;5.974;2023-04-20T10:27:52;75919.59;;;-145.90;34.18
57562;BME280;43397;51.530;5.974;2023-04-20T10:30:19;75846.63;;;-145.90;33.93
57562;BME280;43397;51.530;5.974;2023-04-20T10:32:45;75891.22;;;-145.90;33.73
57562;BME280;43397;51.530;5.974;2023-04-20T10:35:10;76010.81;;;-145.90;35.19
57562;BME280;43397;51.530;5.974;2023-04-20T10:37:46;76049.31;;;-145.90;35.29
57562;BME280;43397;51.530;5.974;2023-04-20T10:40:12;75992.56;;;-145.90;34.83
57562;BME280;43397;51.530;5.974;2023-04-20T10:42:42;75879.06;;;-145.90;34.59
57562;BME280;43397;51.530;5.974;2023-04-20T10:45:10;75810.16;;;-145.90;33.62
57562;BME280;43397;51.530;5.974;2023-04-20T10:47:36;75947.97;;;-145.90;34.21
57562;BME280;43397;51.530;5.974;2023-04-20T10:50:06;75911.50;;;-145.90;34.20
57562;BME280;43397;51.530;5.974;2023-04-20T10:52:32;75929.75;;;-145.90;34.72
57562;BME280;43397;51.530;5.974;2023-04-20T10:54:58;75905.41;;;-145.90;34.94
57562;BME280;43397;51.530;5.974;2023-04-20T10:57:24;76033.09;;;-145.90;35.94
57562;BME280;43397;51.530;5.974;2023-04-20T10:59:49;76004.72;;;-145.90;35.07
57562;BME280;43397;51.530;5.974;2023-04-20T11:02:16;75893.25;;;-145.90;34.47
57562;BME280;43397;51.530;5.974;2023-04-20T11:04:42;75850.69;;;-145.90;34.28
57562;BME280;43397;51.530;5.974;2023-04-20T11:07:09;75769.63;;;-145.90;33.39
57562;BME280;43397;51.530;5.974;2023-04-20T11:09:35;75737.19;;;-145.90;32.94
57562;BME280;43397;51.530;5.974;2023-04-20T11:12:03;75668.28;;;-145.90;32.99
57562;BME280;43397;51.530;5.974;2023-04-20T11:14:29;75850.69;;;-145.90;34.72
57562;BME280;43397;51.530;5.974;2023-04-20T11:16:55;75933.78;;;-145.90;35.98
57562;BME280;43397;51.530;5.974;2023-04-20T11:19:23;76006.75;;;-145.90;37.60
57562;BME280;43397;51.530;5.974;2023-04-20T11:21:49;76039.19;;;-145.90;38.78
57562;BME280;43397;51.530;5.974;2023-04-20T11:24:18;76207.41;;;-145.90;41.50
57562;BME280;43397;51.530;5.974;2023-04-20T11:26:45;76100.00;;;-145.90;41.85
57562;BME280;43397;51.530;5.974;2023-04-20T11:29:10;76150.66;;;-145.90;41.96
57562;BME280;43397;51.530;5.974;2023-04-20T11:31:37;76018.91;;;-145.90;42.12
57562;BME280;43397;51.530;5.974;2023-04-20T11:34:03;75964.19;;;-145.90;41.37
57562;BME280;43397;51.530;5.974;2023-04-20T11:36:30;75844.59;;;-145.90;41.69
57562;BME280;43397;51.530;5.974;2023-04-20T11:39:06;75775.69;;;-145.90;39.86
57562;BME280;43397;51.530;5.974;2023-04-20T11:41:32;75830.44;;;-145.90;39.56
57562;BME280;43397;51.530;5.974;2023-04-20T11:43:58;75737.19;;;-145.90;37.73
57562;BME280;43397;51.530;5.974;2023-04-20T11:46:24;75725.03;;;-145.90;37.36
57562;BME280;43397;51.530;5.974;2023-04-20T11:48:49;75522.38;;;-145.90;38.31
57562;BME280;43397;51.530;5.974;2023-04-20T11:51:15;75558.84;;;-145.90;37.33
57562;BME280;43397;51.530;5.974;2023-04-20T11:53:42;75617.63;;;-145.90;36.72
57562;BME280;43397;51.530;5.974;2023-04-20T11:56:08;75652.06;;;-145.90;36.24
57562;BME280;43397;51.530;5.974;2023-04-20T11:58:33;75577.09;;;-145.90;35.90
57562;BME280;43397;51.530;5.974;2023-04-20T12:00:59;75550.75;;;-145.90;35.51
57562;BME280;43397;51.530;5.974;2023-04-20T12:03:25;75692.59;;;-145.90;35.79
57562;BME280;43397;51.530;5.974;2023-04-20T12:05:50;75648.03;;;-145.90;35.95
57562;BME280;43397;51.530;5.974;2023-04-20T12:08:16;75593.28;;;-145.90;35.62
57562;BME280;43397;51.530;5.974;2023-04-20T12:10:43;75617.63;;;-145.90;34.89
57562;BME280;43397;51.530;5.974;2023-04-20T12:13:09;75678.41;;;-145.90;35.10
57562;BME280;43397;51.530;5.974;2023-04-20T12:15:34;75723.00;;;-145.90;34.86
57562;BME280;43397;51.530;5.974;2023-04-20T12:18:00;75648.03;;;-145.90;34.78
57562;BME280;43397;51.530;5.974;2023-04-20T12:20:26;75597.34;;;-145.90;34.22
57562;BME280;43397;51.530;5.974;2023-04-20T12:22:52;75680.44;;;-145.90;34.80
57562;BME280;43397;51.530;5.974;2023-04-20T12:25:17;75765.56;;;-145.90;34.08
57562;BME280;43397;51.530;5.974;2023-04-20T12:27:44;75548.72;;;-145.90;33.42
57562;BME280;43397;51.530;5.974;2023-04-20T12:30:11;75595.31;;;-145.90;34.23
57562;BME280;43397;51.530;5.974;2023-04-20T12:32:37;75798.00;;;-145.90;35.88
57562;BME280;43397;51.530;5.974;2023-04-20T12:35:03;75745.28;;;-145.90;34.63